createdAt,value
2018-03-06T01:42:29.582Z,-0.84
2018-03-06T01:42:30.153Z,-0.87
2018-03-06T01:42:30.754Z,-0.81
2018-03-06T01:42:31.353Z,-0.80
2018-03-06T01:42:31.954Z,-0.78
2018-03-06T01:42:32.553Z,-0.84
2018-03-06T01:42:33.153Z,-0.80
2018-03-06T01:42:33.752Z,-0.78
2018-03-06T01:43:27.209Z,-0.77
2018-03-06T01:43:27.813Z,-0.78
2018-03-06T01:43:28.407Z,-0.81
2018-03-06T01:43:29.006Z,-0.87
2018-03-06T01:43:29.607Z,-0.84
2018-03-06T01:43:30.206Z,-0.83
2018-03-06T01:43:30.807Z,-0.84
2018-03-06T01:43:31.406Z,-0.78
2018-03-06T01:44:24.865Z,-0.80
2018-03-06T01:44:25.458Z,-0.75
2018-03-06T01:44:26.058Z,-0.83
2018-03-06T01:44:26.659Z,-0.73
2018-03-06T01:44:27.258Z,-0.80
2018-03-06T01:44:27.857Z,-0.75
2018-03-06T01:44:28.459Z,-0.80
2018-03-06T01:44:29.057Z,-0.83
2018-03-06T01:45:23.597Z,-0.84
2018-03-06T01:45:24.134Z,-0.80
2018-03-06T01:45:24.734Z,-0.77
2018-03-06T01:45:25.333Z,-0.84
2018-03-06T01:45:25.934Z,-0.78
2018-03-06T01:45:26.534Z,-0.73
2018-03-06T01:45:27.133Z,-0.73
2018-03-06T01:45:27.731Z,-0.77
2018-03-06T01:46:22.216Z,-0.81
2018-03-06T01:46:22.810Z,-0.87
2018-03-06T01:46:23.411Z,-0.83
2018-03-06T01:46:24.011Z,-0.83
2018-03-06T01:46:24.611Z,-0.78
2018-03-06T01:46:25.211Z,-0.84
2018-03-06T01:46:25.809Z,-0.87
2018-03-06T01:46:26.408Z,-0.80
2018-03-06T01:47:19.899Z,-0.86
2018-03-06T01:47:20.463Z,-0.80
2018-03-06T01:47:21.064Z,-0.84
2018-03-06T01:47:21.670Z,-0.87
2018-03-06T01:47:22.263Z,-0.83
2018-03-06T01:47:22.863Z,-0.81
2018-03-06T01:47:23.462Z,-0.83
2018-03-06T01:47:24.062Z,-0.84
2018-03-06T01:48:17.520Z,-0.83
2018-03-06T01:48:18.116Z,-0.80
2018-03-06T01:48:18.715Z,-0.80
2018-03-06T01:48:19.317Z,-0.84
2018-03-06T01:48:19.915Z,-0.84
2018-03-06T01:48:20.520Z,-0.84
2018-03-06T01:48:21.114Z,-0.81
2018-03-06T01:48:21.715Z,-0.83
2018-03-06T01:49:15.172Z,-0.84
2018-03-06T01:49:15.773Z,-0.73
2018-03-06T01:49:16.368Z,-0.80
2018-03-06T01:49:16.970Z,-0.86
2018-03-06T01:49:17.567Z,-0.83
2018-03-06T01:49:18.166Z,-0.75
2018-03-06T01:49:18.766Z,-0.77
2018-03-06T01:49:19.366Z,-0.78
2018-03-06T01:50:12.823Z,-0.78
2018-03-06T01:50:13.420Z,-0.78
2018-03-06T01:50:14.020Z,-0.77
2018-03-06T01:50:14.622Z,-0.80
2018-03-06T01:50:15.219Z,-0.78
2018-03-06T01:50:15.818Z,-0.83
2018-03-06T01:50:16.419Z,-0.80
2018-03-06T01:50:17.018Z,-0.83
2018-03-06T01:51:11.497Z,-0.63
2018-03-06T01:51:12.095Z,-0.68
2018-03-06T01:51:12.694Z,-0.63
2018-03-06T01:51:13.296Z,-0.69
2018-03-06T01:51:13.895Z,-0.68
2018-03-06T01:51:14.495Z,-0.68
2018-03-06T01:51:15.093Z,-0.68
2018-03-06T01:51:15.693Z,-0.68
2018-03-06T01:52:10.173Z,-0.66
2018-03-06T01:52:10.771Z,-0.57
2018-03-06T01:52:11.370Z,-0.63
2018-03-06T01:52:11.972Z,-0.59
2018-03-06T01:52:12.571Z,-0.63
2018-03-06T01:52:13.170Z,-0.57
2018-03-06T01:52:13.770Z,-0.60
2018-03-06T01:52:14.370Z,-0.62
2018-03-06T01:53:07.857Z,-0.62
2018-03-06T01:53:08.426Z,-0.51
2018-03-06T01:53:09.023Z,-0.66
2018-03-06T01:53:09.623Z,-0.57
2018-03-06T01:53:10.221Z,-0.62
2018-03-06T01:53:10.822Z,-0.51
2018-03-06T01:53:11.422Z,-0.59
2018-03-06T01:53:12.022Z,-0.66
2018-03-06T01:54:05.479Z,-0.66
2018-03-06T01:54:06.075Z,-0.51
2018-03-06T01:54:06.675Z,-0.59
2018-03-06T01:54:07.277Z,-0.59
2018-03-06T01:54:07.875Z,-0.54
2018-03-06T01:54:08.475Z,-0.63
2018-03-06T01:54:09.075Z,-0.59
2018-03-06T01:54:09.674Z,-0.55
2018-03-06T01:55:03.129Z,-0.57
2018-03-06T01:55:03.729Z,-0.59
2018-03-06T01:55:04.327Z,-0.60
2018-03-06T01:55:04.928Z,-0.62
2018-03-06T01:55:05.526Z,-0.57
2018-03-06T01:55:06.126Z,-0.57
2018-03-06T01:55:06.726Z,-0.55
2018-03-06T01:55:07.327Z,-0.59
2018-03-06T01:56:00.781Z,-0.54
2018-03-06T01:56:01.381Z,-0.48
2018-03-06T01:56:01.980Z,-0.45
2018-03-06T01:56:02.578Z,-0.48
2018-03-06T01:56:03.177Z,-0.60
2018-03-06T01:56:03.777Z,-0.59
2018-03-06T01:56:04.377Z,-0.51
2018-03-06T01:56:04.977Z,-0.51
2018-03-06T01:56:58.433Z,-0.47
2018-03-06T01:56:59.031Z,-0.48
2018-03-06T01:56:59.630Z,-0.51
2018-03-06T01:57:00.247Z,-0.42
2018-03-06T01:57:00.831Z,-0.37
2018-03-06T01:57:01.430Z,-0.55
2018-03-06T01:57:02.030Z,-0.47
2018-03-06T01:57:02.629Z,-0.42
2018-03-06T01:57:57.112Z,-0.48
2018-03-06T01:57:57.705Z,-0.41
2018-03-06T01:57:58.304Z,-0.41
2018-03-06T01:57:58.904Z,-0.41
2018-03-06T01:57:59.505Z,-0.39
2018-03-06T01:58:00.104Z,-0.50
2018-03-06T01:58:00.703Z,-0.39
2018-03-06T01:58:01.312Z,-0.44
2018-03-06T01:58:54.793Z,-0.42
2018-03-06T01:58:55.359Z,-0.41
2018-03-06T01:58:55.958Z,-0.39
2018-03-06T01:58:56.558Z,-0.34
2018-03-06T01:58:57.157Z,-0.37
2018-03-06T01:58:57.757Z,-0.44
2018-03-06T01:58:58.367Z,-0.36
2018-03-06T01:58:58.959Z,-0.44
2018-03-06T01:59:53.436Z,-0.36
2018-03-06T01:59:54.037Z,-0.30
2018-03-06T01:59:54.631Z,-0.33
2018-03-06T01:59:55.232Z,-0.33
2018-03-06T01:59:55.885Z,-0.33
2018-03-06T01:59:56.434Z,-0.33
2018-03-06T01:59:57.067Z,-0.31
2018-03-06T01:59:57.679Z,-0.41
2018-03-06T02:00:52.111Z,-0.31
2018-03-06T02:00:52.708Z,-0.30
2018-03-06T02:00:53.308Z,-0.39
2018-03-06T02:00:53.912Z,-0.41
2018-03-06T02:00:54.508Z,-0.27
2018-03-06T02:00:55.106Z,-0.36
2018-03-06T02:00:55.707Z,-0.27
2018-03-06T02:00:56.307Z,-0.33
2018-03-06T02:01:49.765Z,-0.31
2018-03-06T02:01:50.363Z,-0.31
2018-03-06T02:01:50.961Z,-0.29
2018-03-06T02:01:51.562Z,-0.29
2018-03-06T02:01:52.164Z,-0.39
2018-03-06T02:01:52.760Z,-0.26
2018-03-06T02:01:53.360Z,-0.26
2018-03-06T02:01:53.960Z,-0.26
2018-03-06T02:02:48.439Z,-0.23
2018-03-06T02:02:49.035Z,-0.26
2018-03-06T02:02:49.642Z,-0.19
2018-03-06T02:02:50.236Z,-0.23
2018-03-06T02:02:50.836Z,-0.27
2018-03-06T02:02:51.435Z,-0.29
2018-03-06T02:02:52.041Z,-0.26
2018-03-06T02:02:52.638Z,-0.24
2018-03-06T02:03:46.091Z,-0.22
2018-03-06T02:03:46.690Z,-0.18
2018-03-06T02:03:47.289Z,-0.18
2018-03-06T02:03:47.889Z,-0.19
2018-03-06T02:03:48.488Z,-0.19
2018-03-06T02:03:49.090Z,-0.16
2018-03-06T02:03:49.687Z,-0.12
2018-03-06T02:03:50.287Z,-0.16
2018-03-06T02:04:43.778Z,-0.11
2018-03-06T02:04:44.342Z,-0.13
2018-03-06T02:04:44.940Z,-0.13
2018-03-06T02:04:45.541Z,-0.16
2018-03-06T02:04:46.183Z,-0.13
2018-03-06T02:04:46.740Z,-0.13
2018-03-06T02:04:47.343Z,-0.22
2018-03-06T02:04:47.940Z,-0.15
2018-03-06T02:05:41.396Z,-0.18
2018-03-06T02:05:41.995Z,-0.11
2018-03-06T02:05:42.591Z,-0.15
2018-03-06T02:05:43.192Z,-0.12
2018-03-06T02:05:43.792Z,-0.11
2018-03-06T02:05:44.392Z,-0.16
2018-03-06T02:05:44.991Z,-0.13
2018-03-06T02:05:45.592Z,-0.05
2018-03-06T02:06:40.070Z,-0.09
2018-03-06T02:06:40.666Z,-0.05
2018-03-06T02:06:41.266Z,-0.05
2018-03-06T02:06:41.866Z,-0.04
2018-03-06T02:06:42.466Z,-0.11
2018-03-06T02:06:43.065Z,-0.06
2018-03-06T02:06:43.666Z,-0.01
2018-03-06T02:06:44.267Z,-0.06
2018-03-06T02:07:37.722Z,-0.04
2018-03-06T02:07:38.319Z,-0.04
2018-03-06T02:07:38.921Z,-0.09
2018-03-06T02:07:39.519Z,-0.01
2018-03-06T02:07:40.120Z,-0.04
2018-03-06T02:07:40.723Z,-0.09
2018-03-06T02:07:41.318Z,-0.08
2018-03-06T02:07:41.916Z,0.00
2018-03-06T02:08:35.375Z,0.05
2018-03-06T02:08:35.973Z,0.03
2018-03-06T02:08:36.572Z,-0.04
2018-03-06T02:08:37.172Z,0.06
2018-03-06T02:08:37.771Z,0.07
2018-03-06T02:08:38.370Z,0.02
2018-03-06T02:08:38.970Z,0.07
2018-03-06T02:08:39.571Z,0.00
2018-03-06T02:09:34.050Z,0.00
2018-03-06T02:09:34.646Z,-0.01
2018-03-06T02:09:35.246Z,0.02
2018-03-06T02:09:35.846Z,0.03
2018-03-06T02:09:36.446Z,0.06
2018-03-06T02:09:37.044Z,0.06
2018-03-06T02:09:37.646Z,0.05
2018-03-06T02:09:38.245Z,0.06
2018-03-06T02:10:32.758Z,0.15
2018-03-06T02:10:33.322Z,0.13
2018-03-06T02:10:33.922Z,0.09
2018-03-06T02:10:34.522Z,0.05
2018-03-06T02:10:35.123Z,0.10
2018-03-06T02:10:35.722Z,0.09
2018-03-06T02:10:36.320Z,0.12
2018-03-06T02:10:36.920Z,0.18
2018-03-06T02:11:30.376Z,0.13
2018-03-06T02:11:30.974Z,0.16
2018-03-06T02:11:31.574Z,0.20
2018-03-06T02:11:32.181Z,0.13
2018-03-06T02:11:32.775Z,0.18
2018-03-06T02:11:33.374Z,0.10
2018-03-06T02:11:33.972Z,0.09
2018-03-06T02:11:34.573Z,0.10
2018-03-06T02:12:29.052Z,0.13
2018-03-06T02:12:29.649Z,0.10
2018-03-06T02:12:30.251Z,0.12
2018-03-06T02:12:30.849Z,0.13
2018-03-06T02:12:31.449Z,0.12
2018-03-06T02:12:32.049Z,0.15
2018-03-06T02:12:32.650Z,0.13
2018-03-06T02:12:33.249Z,0.16
2018-03-06T02:13:27.727Z,0.16
2018-03-06T02:13:28.326Z,0.18
2018-03-06T02:13:28.924Z,0.15
2018-03-06T02:13:29.525Z,0.15
2018-03-06T02:13:30.122Z,0.18
2018-03-06T02:13:30.723Z,0.16
2018-03-06T02:13:31.324Z,0.18
2018-03-06T02:13:31.923Z,0.15
2018-03-06T02:14:26.402Z,0.20
2018-03-06T02:14:26.999Z,0.24
2018-03-06T02:14:27.608Z,0.25
2018-03-06T02:14:28.202Z,0.16
2018-03-06T02:14:28.800Z,0.18
2018-03-06T02:14:29.399Z,0.24
2018-03-06T02:14:29.999Z,0.23
2018-03-06T02:14:30.599Z,0.24
2018-03-06T02:15:25.079Z,0.25
2018-03-06T02:15:25.676Z,0.21
2018-03-06T02:15:26.274Z,0.18
2018-03-06T02:15:26.882Z,0.21
2018-03-06T02:15:27.476Z,0.25
2018-03-06T02:15:28.076Z,0.25
2018-03-06T02:15:28.675Z,0.21
2018-03-06T02:15:29.275Z,0.18
2018-03-06T02:16:22.764Z,0.20
2018-03-06T02:16:23.328Z,0.27
2018-03-06T02:16:23.928Z,0.28
2018-03-06T02:16:24.528Z,0.24
2018-03-06T02:16:25.132Z,0.23
2018-03-06T02:16:25.728Z,0.20
2018-03-06T02:16:26.327Z,0.23
2018-03-06T02:16:26.928Z,0.23
2018-03-06T02:17:21.407Z,0.24
2018-03-06T02:17:22.002Z,0.25
2018-03-06T02:17:22.603Z,0.25
2018-03-06T02:17:23.204Z,0.31
2018-03-06T02:17:23.807Z,0.36
2018-03-06T02:17:24.402Z,0.27
2018-03-06T02:17:25.002Z,0.27
2018-03-06T02:17:25.602Z,0.28
2018-03-06T02:18:20.082Z,0.30
2018-03-06T02:18:20.679Z,0.28
2018-03-06T02:18:21.280Z,0.31
2018-03-06T02:18:21.884Z,0.28
2018-03-06T02:18:22.478Z,0.30
2018-03-06T02:18:23.078Z,0.36
2018-03-06T02:18:23.677Z,0.36
2018-03-06T02:18:24.278Z,0.38
2018-03-06T02:19:17.736Z,0.34
2018-03-06T02:19:18.332Z,0.33
2018-03-06T02:19:18.931Z,0.28
2018-03-06T02:19:19.531Z,0.36
2018-03-06T02:19:20.131Z,0.38
2018-03-06T02:19:20.731Z,0.30
2018-03-06T02:19:21.331Z,0.27
2018-03-06T02:19:21.930Z,0.33
2018-03-06T02:20:15.388Z,0.38
2018-03-06T02:20:15.985Z,0.39
2018-03-06T02:20:16.586Z,0.43
2018-03-06T02:20:17.182Z,0.43
2018-03-06T02:20:17.784Z,0.46
2018-03-06T02:20:18.383Z,0.43
2018-03-06T02:20:18.989Z,0.42
2018-03-06T02:20:19.581Z,0.39
2018-03-06T02:21:14.066Z,0.43
2018-03-06T02:21:14.658Z,0.43
2018-03-06T02:21:15.257Z,0.46
2018-03-06T02:21:15.858Z,0.45
2018-03-06T02:21:16.459Z,0.45
2018-03-06T02:21:17.056Z,0.48
2018-03-06T02:21:17.657Z,0.46
2018-03-06T02:21:18.257Z,0.46
2018-03-06T02:22:11.748Z,0.58
2018-03-06T02:22:12.311Z,0.53
2018-03-06T02:22:12.911Z,0.57
2018-03-06T02:22:13.510Z,0.58
2018-03-06T02:22:14.111Z,0.53
2018-03-06T02:22:14.710Z,0.62
2018-03-06T02:22:15.310Z,0.60
2018-03-06T02:22:15.909Z,0.53
2018-03-06T02:23:10.389Z,0.60
2018-03-06T02:23:10.987Z,0.58
2018-03-06T02:23:11.585Z,0.60
2018-03-06T02:23:12.186Z,0.52
2018-03-06T02:23:12.788Z,0.60
2018-03-06T02:23:13.385Z,0.67
2018-03-06T02:23:13.984Z,0.61
2018-03-06T02:23:14.584Z,0.70
2018-03-06T02:24:09.063Z,0.62
2018-03-06T02:24:09.663Z,0.61
2018-03-06T02:24:10.262Z,0.57
2018-03-06T02:24:10.862Z,0.61
2018-03-06T02:24:11.461Z,0.68
2018-03-06T02:24:12.061Z,0.61
2018-03-06T02:24:12.663Z,0.64
2018-03-06T02:24:13.260Z,0.64
2018-03-06T02:25:06.717Z,0.71
2018-03-06T02:25:07.315Z,0.70
2018-03-06T02:25:07.915Z,0.68
2018-03-06T02:25:08.515Z,0.71
2018-03-06T02:25:09.113Z,0.72
2018-03-06T02:25:09.714Z,0.67
2018-03-06T02:25:10.313Z,0.75
2018-03-06T02:25:10.913Z,0.71
2018-03-06T02:26:04.369Z,0.79
2018-03-06T02:26:04.966Z,0.71
2018-03-06T02:26:05.566Z,0.78
2018-03-06T02:26:06.165Z,0.76
2018-03-06T02:26:06.765Z,0.82
2018-03-06T02:26:07.365Z,0.71
2018-03-06T02:26:07.965Z,0.80
2018-03-06T02:26:08.565Z,0.70
2018-03-06T02:27:03.043Z,0.78
2018-03-06T02:27:03.640Z,0.82
2018-03-06T02:27:04.240Z,0.78
2018-03-06T02:27:04.841Z,0.67
2018-03-06T02:27:05.440Z,0.64
2018-03-06T02:27:06.040Z,0.76
2018-03-06T02:27:06.639Z,0.71
2018-03-06T02:27:07.238Z,0.70
2018-03-06T02:28:00.728Z,0.78
2018-03-06T02:28:01.294Z,0.76
2018-03-06T02:28:01.893Z,0.82
2018-03-06T02:28:02.492Z,0.78
2018-03-06T02:28:03.092Z,0.70
2018-03-06T02:28:03.692Z,0.72
2018-03-06T02:28:04.292Z,0.64
2018-03-06T02:28:04.919Z,0.79
2018-03-06T02:28:58.347Z,0.78
2018-03-06T02:28:58.945Z,0.78
2018-03-06T02:28:59.544Z,0.79
2018-03-06T02:29:00.144Z,0.67
2018-03-06T02:29:00.744Z,0.79
2018-03-06T02:29:01.344Z,0.78
2018-03-06T02:29:01.945Z,0.75
2018-03-06T02:29:02.544Z,0.80
2018-03-06T02:29:56.038Z,0.70
2018-03-06T02:29:56.597Z,0.76
2018-03-06T02:29:57.196Z,0.75
2018-03-06T02:29:57.796Z,0.78
2018-03-06T02:29:58.396Z,0.82
2018-03-06T02:29:58.996Z,0.76
2018-03-06T02:29:59.595Z,0.78
2018-03-06T02:30:00.198Z,0.80
2018-03-06T02:30:53.650Z,0.76
2018-03-06T02:30:54.254Z,0.80
2018-03-06T02:30:54.848Z,0.75
2018-03-06T02:30:55.448Z,0.78
2018-03-06T02:30:56.047Z,0.79
2018-03-06T02:30:56.646Z,0.80
2018-03-06T02:30:57.248Z,0.79
2018-03-06T02:30:57.851Z,0.85
2018-03-06T02:31:51.305Z,0.80
2018-03-06T02:31:51.903Z,0.72
2018-03-06T02:31:52.500Z,0.78
2018-03-06T02:31:53.099Z,0.79
2018-03-06T02:31:53.698Z,0.75
2018-03-06T02:31:54.297Z,0.79
2018-03-06T02:31:54.898Z,0.75
2018-03-06T02:31:55.497Z,0.78
2018-03-06T02:32:49.977Z,0.76
2018-03-06T02:32:50.574Z,0.85
2018-03-06T02:32:51.174Z,0.78
2018-03-06T02:32:51.774Z,0.79
2018-03-06T02:32:52.373Z,0.83
2018-03-06T02:32:52.977Z,0.79
2018-03-06T02:32:53.574Z,0.90
2018-03-06T02:32:54.172Z,0.78
2018-03-06T02:33:47.656Z,0.86
2018-03-06T02:33:48.240Z,0.80
2018-03-06T02:33:48.827Z,0.75
2018-03-06T02:33:49.427Z,0.83
2018-03-06T02:33:50.026Z,0.82
2018-03-06T02:33:50.626Z,0.88
2018-03-06T02:33:51.228Z,0.83
2018-03-06T02:33:51.826Z,0.79
2018-03-06T02:34:46.305Z,0.82
2018-03-06T02:34:46.904Z,0.83
2018-03-06T02:34:47.501Z,0.86
2018-03-06T02:34:48.102Z,0.88
2018-03-06T02:34:48.701Z,0.83
2018-03-06T02:34:49.301Z,0.86
2018-03-06T02:34:49.900Z,0.86
2018-03-06T02:34:50.500Z,0.75
2018-03-06T02:35:43.957Z,0.90
2018-03-06T02:35:44.555Z,0.83
2018-03-06T02:35:45.153Z,0.88
2018-03-06T02:35:45.754Z,0.83
2018-03-06T02:35:46.353Z,0.79
2018-03-06T02:35:46.956Z,0.82
2018-03-06T02:35:47.554Z,0.83
2018-03-06T02:35:48.153Z,0.86
2018-03-06T02:36:41.632Z,0.82
2018-03-06T02:36:42.204Z,0.72
2018-03-06T02:36:42.804Z,0.72
2018-03-06T02:36:43.407Z,0.76
2018-03-06T02:36:44.003Z,0.83
2018-03-06T02:36:44.603Z,0.83
2018-03-06T02:36:45.203Z,0.82
2018-03-06T02:36:45.803Z,0.78
2018-03-06T02:37:40.282Z,0.85
2018-03-06T02:37:40.880Z,0.86
2018-03-06T02:37:41.478Z,0.78
2018-03-06T02:37:42.079Z,0.83
2018-03-06T02:37:42.677Z,0.79
2018-03-06T02:37:43.278Z,0.86
2018-03-06T02:37:43.893Z,0.86
2018-03-06T02:37:44.477Z,0.85
2018-03-06T02:38:38.993Z,0.85
2018-03-06T02:38:39.554Z,0.85
2018-03-06T02:38:40.153Z,0.83
2018-03-06T02:38:40.756Z,0.86
2018-03-06T02:38:41.354Z,0.85
2018-03-06T02:38:41.953Z,0.85
2018-03-06T02:38:42.553Z,0.86
2018-03-06T02:38:43.154Z,0.89
2018-03-06T02:39:36.612Z,0.83
2018-03-06T02:39:37.207Z,0.80
2018-03-06T02:39:37.806Z,0.83
2018-03-06T02:57:20.375Z,0.24
2018-03-06T02:57:20.942Z,0.30
2018-03-06T02:57:21.540Z,0.34
2018-03-06T02:57:22.139Z,0.28
2018-03-06T02:57:22.738Z,0.34
2018-03-06T02:57:23.339Z,0.28
2018-03-06T02:57:23.938Z,0.36
2018-03-06T02:57:24.538Z,0.33
2018-03-06T02:58:17.999Z,0.24
2018-03-06T02:58:18.593Z,0.18
2018-03-06T02:58:19.193Z,0.15
2018-03-06T02:58:19.799Z,0.18
2018-03-06T02:58:20.393Z,0.23
2018-03-06T02:58:20.993Z,0.25
2018-03-06T02:58:21.592Z,0.16
2018-03-06T02:58:22.192Z,0.24
2018-03-06T02:59:15.648Z,0.24
2018-03-06T02:59:16.245Z,0.10
2018-03-06T02:59:16.846Z,0.16
2018-03-06T02:59:17.449Z,0.13
2018-03-06T02:59:18.046Z,0.13
2018-03-06T02:59:18.646Z,0.16
2018-03-06T02:59:19.245Z,0.09
2018-03-06T02:59:19.845Z,0.20
2018-03-06T03:00:14.324Z,0.12
2018-03-06T03:00:14.921Z,0.12
2018-03-06T03:00:15.521Z,0.09
2018-03-06T03:00:16.123Z,0.16
2018-03-06T03:00:16.723Z,0.12
2018-03-06T03:00:17.321Z,0.12
2018-03-06T03:00:17.920Z,0.16
2018-03-06T03:00:18.519Z,0.18
2018-03-06T03:01:11.976Z,0.09
2018-03-06T03:01:12.573Z,0.15
2018-03-06T03:01:13.212Z,0.09
2018-03-06T03:01:13.777Z,0.10
2018-03-06T03:01:14.373Z,0.12
2018-03-06T03:01:14.972Z,0.02
2018-03-06T03:01:15.577Z,0.10
2018-03-06T03:01:16.172Z,0.06
2018-03-06T03:02:09.633Z,0.06
2018-03-06T03:02:10.225Z,0.00
2018-03-06T03:02:10.826Z,0.02
2018-03-06T03:02:11.427Z,0.02
2018-03-06T03:02:12.025Z,0.06
2018-03-06T03:02:12.624Z,0.05
2018-03-06T03:02:13.226Z,0.12
2018-03-06T03:02:13.824Z,-0.05
2018-03-06T03:03:08.336Z,0.06
2018-03-06T03:03:08.905Z,0.05
2018-03-06T03:03:09.500Z,0.06
2018-03-06T03:03:10.102Z,0.03
2018-03-06T03:03:10.701Z,0.06
2018-03-06T03:03:11.299Z,0.02
2018-03-06T03:03:11.900Z,0.03
2018-03-06T03:03:12.499Z,0.03
2018-03-06T03:04:06.980Z,-0.06
2018-03-06T03:04:07.576Z,-0.09
2018-03-06T03:04:08.177Z,0.06
2018-03-06T03:04:08.777Z,0.05
2018-03-06T03:04:09.375Z,-0.05
2018-03-06T03:04:09.976Z,0.07
2018-03-06T03:04:10.576Z,0.06
2018-03-06T03:04:11.176Z,0.03
2018-03-06T03:05:04.632Z,-0.06
2018-03-06T03:05:05.230Z,0.03
2018-03-06T03:05:05.829Z,0.06
2018-03-06T03:05:06.434Z,-0.04
2018-03-06T03:05:07.028Z,-0.05
2018-03-06T03:05:07.629Z,0.02
2018-03-06T03:05:08.229Z,-0.06
2018-03-06T03:05:08.829Z,-0.06
2018-03-06T03:06:02.284Z,0.05
2018-03-06T03:06:02.881Z,-0.04
2018-03-06T03:06:03.482Z,0.12
2018-03-06T03:06:04.094Z,0.06
2018-03-06T03:06:04.682Z,0.06
2018-03-06T03:06:05.278Z,0.06
2018-03-06T03:06:05.880Z,0.13
2018-03-06T03:06:06.479Z,0.09
2018-03-06T03:06:59.936Z,0.13
2018-03-06T03:07:00.533Z,0.10
2018-03-06T03:07:01.133Z,0.15
2018-03-06T03:07:01.733Z,0.09
2018-03-06T03:07:02.332Z,0.13
2018-03-06T03:07:02.932Z,0.18
2018-03-06T03:07:03.532Z,0.16
2018-03-06T03:07:04.133Z,0.10
2018-03-06T03:07:57.591Z,0.18
2018-03-06T03:07:58.185Z,0.20
2018-03-06T03:07:58.785Z,0.20
2018-03-06T03:07:59.385Z,0.23
2018-03-06T03:07:59.985Z,0.18
2018-03-06T03:08:00.583Z,0.20
2018-03-06T03:08:01.184Z,0.18
2018-03-06T03:08:01.783Z,0.16
2018-03-06T03:08:56.296Z,0.24
2018-03-06T03:08:56.859Z,0.28
2018-03-06T03:08:57.459Z,0.24
2018-03-06T03:08:58.061Z,0.23
2018-03-06T03:08:58.659Z,0.25
2018-03-06T03:08:59.259Z,0.28
2018-03-06T03:08:59.858Z,0.27
2018-03-06T03:09:00.457Z,0.25
2018-03-06T03:09:53.929Z,0.23
2018-03-06T03:09:54.513Z,0.27
2018-03-06T03:09:55.114Z,0.25
2018-03-06T03:09:55.714Z,0.25
2018-03-06T03:09:56.311Z,0.34
2018-03-06T03:09:56.911Z,0.33
2018-03-06T03:09:57.512Z,0.34
2018-03-06T03:09:58.112Z,0.33
2018-03-06T03:10:51.569Z,0.20
2018-03-06T03:10:52.165Z,0.27
2018-03-06T03:10:52.764Z,0.34
2018-03-06T03:10:53.365Z,0.33
2018-03-06T03:10:53.964Z,0.28
2018-03-06T03:10:54.562Z,0.28
2018-03-06T03:10:55.164Z,0.33
2018-03-06T03:10:55.762Z,0.24
2018-03-06T03:11:50.242Z,0.21
2018-03-06T03:11:50.840Z,0.21
2018-03-06T03:11:51.438Z,0.24
2018-03-06T03:11:52.043Z,0.24
2018-03-06T03:11:52.639Z,0.21
2018-03-06T03:11:53.238Z,0.21
2018-03-06T03:11:53.838Z,0.27
2018-03-06T03:11:54.438Z,0.23
2018-03-06T03:12:48.917Z,0.24
2018-03-06T03:12:49.514Z,0.20
2018-03-06T03:12:50.116Z,0.21
2018-03-06T03:12:50.715Z,0.16
2018-03-06T03:12:51.314Z,0.20
2018-03-06T03:12:51.915Z,0.16
2018-03-06T03:12:52.514Z,0.20
2018-03-06T03:12:53.113Z,0.25
2018-03-06T03:13:47.594Z,0.10
2018-03-06T03:13:48.190Z,0.18
2018-03-06T03:13:48.790Z,0.20
2018-03-06T03:13:49.395Z,0.20
2018-03-06T03:13:49.990Z,0.18
2018-03-06T03:13:50.590Z,0.23
2018-03-06T03:13:51.192Z,0.20
2018-03-06T03:13:51.789Z,0.16
2018-03-06T03:14:45.287Z,0.23
2018-03-06T03:14:45.842Z,0.18
2018-03-06T03:14:46.444Z,0.13
2018-03-06T03:14:47.044Z,0.23
2018-03-06T03:14:47.642Z,0.24
2018-03-06T03:14:48.242Z,0.23
2018-03-06T03:14:48.846Z,0.13
2018-03-06T03:14:49.445Z,0.23
2018-03-06T03:15:42.897Z,0.21
2018-03-06T03:15:43.496Z,0.15
2018-03-06T03:15:44.096Z,0.13
2018-03-06T03:15:44.695Z,0.13
2018-03-06T03:15:45.296Z,0.24
2018-03-06T03:15:45.894Z,0.16
2018-03-06T03:15:46.497Z,0.15
2018-03-06T03:15:47.094Z,0.13
2018-03-06T03:16:40.549Z,0.09
2018-03-06T03:16:41.148Z,0.15
2018-03-06T03:16:41.747Z,0.20
2018-03-06T03:16:42.347Z,0.12
2018-03-06T03:16:42.945Z,0.10
2018-03-06T03:16:43.546Z,0.13
2018-03-06T03:16:44.145Z,0.15
2018-03-06T03:16:44.745Z,0.18
2018-03-06T03:17:38.203Z,0.12
2018-03-06T03:17:38.800Z,0.16
2018-03-06T03:17:39.398Z,0.16
2018-03-06T03:17:39.998Z,0.18
2018-03-06T03:17:40.598Z,0.25
2018-03-06T03:17:41.198Z,0.18
2018-03-06T03:17:41.798Z,0.23
2018-03-06T03:17:42.397Z,0.15
2018-03-06T03:18:35.854Z,0.16
2018-03-06T03:18:36.451Z,0.18
2018-03-06T03:18:37.049Z,0.21
2018-03-06T03:18:37.654Z,0.20
2018-03-06T03:18:38.249Z,0.13
2018-03-06T03:18:38.850Z,0.15
2018-03-06T03:18:39.450Z,0.15
2018-03-06T03:18:40.049Z,0.15
2018-03-06T03:19:33.507Z,0.12
2018-03-06T03:19:34.106Z,0.16
2018-03-06T03:19:34.704Z,0.15
2018-03-06T03:19:35.302Z,0.16
2018-03-06T03:19:35.901Z,0.18
2018-03-06T03:19:36.500Z,0.21
2018-03-06T03:19:37.101Z,0.12
2018-03-06T03:19:37.700Z,0.15
2018-03-06T03:20:32.239Z,0.21
2018-03-06T03:20:32.776Z,0.16
2018-03-06T03:20:33.375Z,0.18
2018-03-06T03:20:33.977Z,0.13
2018-03-06T03:20:34.576Z,0.24
2018-03-06T03:20:35.176Z,0.21
2018-03-06T03:20:35.776Z,0.16
2018-03-06T03:20:36.374Z,0.20
2018-03-06T03:21:30.855Z,0.18
2018-03-06T03:21:31.452Z,0.31
2018-03-06T03:21:32.052Z,0.20
2018-03-06T03:21:32.651Z,0.13
2018-03-06T03:21:33.252Z,0.13
2018-03-06T03:21:33.850Z,0.15
2018-03-06T03:21:34.455Z,0.16
2018-03-06T03:21:35.050Z,0.13
2018-03-06T03:22:28.509Z,0.16
2018-03-06T03:22:29.110Z,0.25
2018-03-06T03:22:29.704Z,0.24
2018-03-06T03:22:30.304Z,0.16
2018-03-06T03:22:30.904Z,0.18
2018-03-06T03:22:31.504Z,0.20
2018-03-06T03:22:32.104Z,0.20
2018-03-06T03:22:32.704Z,0.24
2018-03-06T03:23:26.162Z,0.15
2018-03-06T03:23:26.758Z,0.15
2018-03-06T03:23:27.357Z,0.23
2018-03-06T03:23:27.957Z,0.24
2018-03-06T03:23:28.557Z,0.20
2018-03-06T03:23:29.157Z,0.27
2018-03-06T03:23:29.757Z,0.25
2018-03-06T03:23:30.356Z,0.20
2018-03-06T03:24:24.835Z,0.18
2018-03-06T03:24:25.449Z,0.20
2018-03-06T03:24:26.031Z,0.21
2018-03-06T03:24:26.632Z,0.18
2018-03-06T03:24:27.230Z,0.24
2018-03-06T03:24:27.830Z,0.28
2018-03-06T03:24:28.431Z,0.16
2018-03-06T03:24:29.030Z,0.25
2018-03-06T03:25:22.488Z,0.21
2018-03-06T03:25:23.085Z,0.23
2018-03-06T03:25:23.685Z,0.27
2018-03-06T03:25:24.284Z,0.20
2018-03-06T03:25:24.884Z,0.20
2018-03-06T03:25:25.484Z,0.24
2018-03-06T03:25:26.090Z,0.21
2018-03-06T03:25:26.684Z,0.20
2018-03-06T03:26:21.187Z,0.20
2018-03-06T03:26:21.758Z,0.18
2018-03-06T03:26:22.359Z,0.20
2018-03-06T03:26:22.958Z,0.18
2018-03-06T03:26:23.558Z,0.18
2018-03-06T03:26:24.158Z,0.18
2018-03-06T03:26:24.757Z,0.16
2018-03-06T03:26:25.357Z,0.16
2018-03-06T03:27:19.836Z,0.18
2018-03-06T03:27:20.434Z,0.27
2018-03-06T03:27:21.035Z,0.16
2018-03-06T03:27:21.634Z,0.15
2018-03-06T03:27:22.246Z,0.20
2018-03-06T03:27:22.833Z,0.20
2018-03-06T03:27:23.433Z,0.18
2018-03-06T03:27:24.033Z,0.20
2018-03-06T03:28:18.512Z,0.15
2018-03-06T03:28:19.110Z,0.18
2018-03-06T03:28:19.710Z,0.23
2018-03-06T03:28:20.310Z,0.15
2018-03-06T03:28:20.915Z,0.23
2018-03-06T03:28:21.509Z,0.18
2018-03-06T03:28:22.108Z,0.16
2018-03-06T03:28:22.710Z,0.16
2018-03-06T03:29:16.165Z,0.13
2018-03-06T03:29:16.763Z,0.24
2018-03-06T03:29:17.366Z,0.15
2018-03-06T03:29:17.968Z,0.18
2018-03-06T03:29:18.560Z,0.13
2018-03-06T03:29:19.161Z,0.24
2018-03-06T03:29:19.760Z,0.18
2018-03-06T03:29:20.360Z,0.25
2018-03-06T03:30:13.820Z,0.15
2018-03-06T03:30:14.415Z,0.15
2018-03-06T03:30:15.016Z,0.18
2018-03-06T03:30:15.614Z,0.15
2018-03-06T03:30:16.216Z,0.16
2018-03-06T03:30:16.815Z,0.23
2018-03-06T03:30:17.414Z,0.16
2018-03-06T03:30:18.013Z,0.18
2018-03-06T03:31:11.503Z,0.13
2018-03-06T03:31:12.067Z,0.18
2018-03-06T03:31:12.666Z,0.18
2018-03-06T03:31:13.266Z,0.20
2018-03-06T03:31:13.869Z,0.16
2018-03-06T03:31:14.467Z,0.24
2018-03-06T03:31:15.066Z,0.18
2018-03-06T03:31:15.664Z,0.15
2018-03-06T03:32:09.119Z,0.16
2018-03-06T03:32:09.718Z,0.18
2018-03-06T03:32:10.317Z,0.18
2018-03-06T03:32:10.924Z,0.20
2018-03-06T03:32:11.518Z,0.20
2018-03-06T03:32:12.117Z,0.20
2018-03-06T03:32:12.716Z,0.25
2018-03-06T03:32:13.323Z,0.20
2018-03-06T03:33:07.795Z,0.23
2018-03-06T03:33:08.391Z,0.16
2018-03-06T03:33:08.992Z,0.24
2018-03-06T03:33:09.597Z,0.23
2018-03-06T03:33:10.191Z,0.16
2018-03-06T03:33:10.791Z,0.15
2018-03-06T03:33:11.391Z,0.28
2018-03-06T03:33:11.993Z,0.21
2018-03-06T03:34:06.473Z,0.13
2018-03-06T03:34:07.072Z,0.20
2018-03-06T03:34:07.670Z,0.16
2018-03-06T03:34:08.268Z,0.15
2018-03-06T03:34:08.868Z,0.20
2018-03-06T03:34:09.467Z,0.21
2018-03-06T03:34:10.066Z,0.20
2018-03-06T03:34:10.667Z,0.13
2018-03-06T03:35:04.123Z,0.13
2018-03-06T03:35:04.721Z,0.20
2018-03-06T03:35:05.320Z,0.18
2018-03-06T03:35:05.921Z,0.18